sensor_id;sensor_type;location;lat;lon;timestamp;temperature;humidity
8715;DHT22;4394;51.208;8.904;2022-08-25T00:02:07;21.30;92.90
8715;DHT22;4394;51.208;8.904;2022-08-25T00:04:56;21.30;92.60
8715;DHT22;4394;51.208;8.904;2022-08-25T00:07:45;21.20;92.60
8715;DHT22;4394;51.208;8.904;2022-08-25T00:10:35;21.20;92.30
8715;DHT22;4394;51.208;8.904;2022-08-25T00:13:24;21.30;91.80
8715;DHT22;4394;51.208;8.904;2022-08-25T00:16:14;21.20;92.10
8715;DHT22;4394;51.208;8.904;2022-08-25T00:19:04;21.20;93.30
8715;DHT22;4394;51.208;8.904;2022-08-25T00:21:52;21.10;93.80
8715;DHT22;4394;51.208;8.904;2022-08-25T00:24:40;21.10;92.90
8715;DHT22;4394;51.208;8.904;2022-08-25T00:27:29;21.10;93.10
8715;DHT22;4394;51.208;8.904;2022-08-25T00:30:17;21.20;91.60
8715;DHT22;4394;51.208;8.904;2022-08-25T00:33:05;21.20;92.90
8715;DHT22;4394;51.208;8.904;2022-08-25T00:35:53;21.10;94.10
8715;DHT22;4394;51.208;8.904;2022-08-25T00:38:42;21.00;94.90
8715;DHT22;4394;51.208;8.904;2022-08-25T00:41:31;21.00;94.90
8715;DHT22;4394;51.208;8.904;2022-08-25T00:44:23;20.90;95.60
8715;DHT22;4394;51.208;8.904;2022-08-25T00:47:11;20.80;96.00
8715;DHT22;4394;51.208;8.904;2022-08-25T00:50:00;20.80;96.70
8715;DHT22;4394;51.208;8.904;2022-08-25T00:52:50;20.70;97.10
8715;DHT22;4394;51.208;8.904;2022-08-25T00:55:39;20.70;97.40
8715;DHT22;4394;51.208;8.904;2022-08-25T00:58:27;20.70;97.40
8715;DHT22;4394;51.208;8.904;2022-08-25T01:01:18;20.60;97.80
8715;DHT22;4394;51.208;8.904;2022-08-25T01:04:06;20.60;98.00
8715;DHT22;4394;51.208;8.904;2022-08-25T01:06:54;20.60;98.20
8715;DHT22;4394;51.208;8.904;2022-08-25T01:09:43;20.60;98.30
8715;DHT22;4394;51.208;8.904;2022-08-25T01:12:32;20.60;97.70
8715;DHT22;4394;51.208;8.904;2022-08-25T01:15:20;20.60;97.90
8715;DHT22;4394;51.208;8.904;2022-08-25T01:18:10;20.60;98.10
8715;DHT22;4394;51.208;8.904;2022-08-25T01:20:59;20.60;98.60
8715;DHT22;4394;51.208;8.904;2022-08-25T01:23:47;20.50;98.60
8715;DHT22;4394;51.208;8.904;2022-08-25T01:26:35;20.50;99.50
8715;DHT22;4394;51.208;8.904;2022-08-25T01:29:23;20.40;99.40
8715;DHT22;4394;51.208;8.904;2022-08-25T01:32:12;20.40;99.90
8715;DHT22;4394;51.208;8.904;2022-08-25T01:35:00;20.40;99.90
8715;DHT22;4394;51.208;8.904;2022-08-25T01:37:49;20.30;99.50
8715;DHT22;4394;51.208;8.904;2022-08-25T01:40:38;20.40;99.90
8715;DHT22;4394;51.208;8.904;2022-08-25T01:43:29;20.40;99.70
8715;DHT22;4394;51.208;8.904;2022-08-25T01:46:17;20.40;99.90
8715;DHT22;4394;51.208;8.904;2022-08-25T01:49:06;20.30;99.90
8715;DHT22;4394;51.208;8.904;2022-08-25T01:51:55;20.30;99.90
8715;DHT22;4394;51.208;8.904;2022-08-25T01:54:45;20.30;99.90
8715;DHT22;4394;51.208;8.904;2022-08-25T01:57:33;20.20;99.90
8715;DHT22;4394;51.208;8.904;2022-08-25T02:00:21;20.20;99.90
8715;DHT22;4394;51.208;8.904;2022-08-25T02:03:09;20.20;99.90
8715;DHT22;4394;51.208;8.904;2022-08-25T02:06:04;20.10;99.90
8715;DHT22;4394;51.208;8.904;2022-08-25T02:08:53;20.10;99.90
8715;DHT22;4394;51.208;8.904;2022-08-25T02:11:44;20.10;99.90
8715;DHT22;4394;51.208;8.904;2022-08-25T02:14:33;20.10;99.90
8715;DHT22;4394;51.208;8.904;2022-08-25T02:17:22;20.00;99.90
8715;DHT22;4394;51.208;8.904;2022-08-25T02:20:10;20.00;99.90
8715;DHT22;4394;51.208;8.904;2022-08-25T02:22:58;20.00;99.90
8715;DHT22;4394;51.208;8.904;2022-08-25T02:25:46;20.00;99.90
8715;DHT22;4394;51.208;8.904;2022-08-25T02:28:35;19.90;99.90
8715;DHT22;4394;51.208;8.904;2022-08-25T02:31:24;19.90;99.90
8715;DHT22;4394;51.208;8.904;2022-08-25T02:34:12;19.90;99.90
8715;DHT22;4394;51.208;8.904;2022-08-25T02:37:00;19.90;99.90
8715;DHT22;4394;51.208;8.904;2022-08-25T02:39:49;19.90;99.90
8715;DHT22;4394;51.208;8.904;2022-08-25T02:42:36;19.90;99.90
8715;DHT22;4394;51.208;8.904;2022-08-25T02:45:29;19.80;99.90
8715;DHT22;4394;51.208;8.904;2022-08-25T02:48:18;19.80;99.90
8715;DHT22;4394;51.208;8.904;2022-08-25T02:51:07;19.70;99.90
8715;DHT22;4394;51.208;8.904;2022-08-25T02:53:56;19.70;99.90
8715;DHT22;4394;51.208;8.904;2022-08-25T02:56:44;19.80;99.90
8715;DHT22;4394;51.208;8.904;2022-08-25T02:59:32;19.80;99.90
8715;DHT22;4394;51.208;8.904;2022-08-25T03:02:22;19.90;99.90
8715;DHT22;4394;51.208;8.904;2022-08-25T03:05:10;19.90;99.90
8715;DHT22;4394;51.208;8.904;2022-08-25T03:07:59;19.90;99.90
8715;DHT22;4394;51.208;8.904;2022-08-25T03:10:47;19.90;99.90
8715;DHT22;4394;51.208;8.904;2022-08-25T03:13:37;19.80;99.90
8715;DHT22;4394;51.208;8.904;2022-08-25T03:16:25;19.70;99.90
8715;DHT22;4394;51.208;8.904;2022-08-25T03:19:15;19.70;99.90
8715;DHT22;4394;51.208;8.904;2022-08-25T03:22:03;19.60;99.90
8715;DHT22;4394;51.208;8.904;2022-08-25T03:24:51;19.60;99.90
8715;DHT22;4394;51.208;8.904;2022-08-25T03:28:00;19.50;99.90
8715;DHT22;4394;51.208;8.904;2022-08-25T03:30:47;19.50;99.90
8715;DHT22;4394;51.208;8.904;2022-08-25T03:33:41;19.50;99.90
8715;DHT22;4394;51.208;8.904;2022-08-25T03:36:31;19.80;99.90
8715;DHT22;4394;51.208;8.904;2022-08-25T03:39:21;19.70;99.90
8715;DHT22;4394;51.208;8.904;2022-08-25T03:42:09;19.60;99.90
8715;DHT22;4394;51.208;8.904;2022-08-25T03:44:58;19.50;99.90
8715;DHT22;4394;51.208;8.904;2022-08-25T03:47:48;19.50;99.90
8715;DHT22;4394;51.208;8.904;2022-08-25T03:50:36;19.40;99.90
8715;DHT22;4394;51.208;8.904;2022-08-25T03:53:37;19.40;99.90
8715;DHT22;4394;51.208;8.904;2022-08-25T03:56:26;19.40;99.90
8715;DHT22;4394;51.208;8.904;2022-08-25T03:59:14;19.40;99.90
8715;DHT22;4394;51.208;8.904;2022-08-25T04:02:02;19.40;99.90
8715;DHT22;4394;51.208;8.904;2022-08-25T04:04:50;19.50;99.90
8715;DHT22;4394;51.208;8.904;2022-08-25T04:07:41;19.50;99.90
8715;DHT22;4394;51.208;8.904;2022-08-25T04:10:30;19.50;99.90
8715;DHT22;4394;51.208;8.904;2022-08-25T04:13:20;19.50;99.90
8715;DHT22;4394;51.208;8.904;2022-08-25T04:16:10;19.30;99.90
8715;DHT22;4394;51.208;8.904;2022-08-25T04:19:02;19.50;99.90
8715;DHT22;4394;51.208;8.904;2022-08-25T04:21:51;19.40;99.90
8715;DHT22;4394;51.208;8.904;2022-08-25T04:24:42;19.40;99.90
8715;DHT22;4394;51.208;8.904;2022-08-25T04:27:32;19.40;99.90
8715;DHT22;4394;51.208;8.904;2022-08-25T04:30:20;19.40;99.90
8715;DHT22;4394;51.208;8.904;2022-08-25T04:33:08;19.40;99.90
8715;DHT22;4394;51.208;8.904;2022-08-25T04:35:56;19.40;99.90
8715;DHT22;4394;51.208;8.904;2022-08-25T04:38:46;19.40;99.90
8715;DHT22;4394;51.208;8.904;2022-08-25T04:41:35;19.40;99.90
8715;DHT22;4394;51.208;8.904;2022-08-25T04:44:24;19.40;99.90
8715;DHT22;4394;51.208;8.904;2022-08-25T04:47:12;19.40;99.90
8715;DHT22;4394;51.208;8.904;2022-08-25T04:50:00;19.40;99.90
8715;DHT22;4394;51.208;8.904;2022-08-25T04:52:48;19.40;99.90
8715;DHT22;4394;51.208;8.904;2022-08-25T04:55:39;19.40;99.90
8715;DHT22;4394;51.208;8.904;2022-08-25T04:58:27;19.40;99.90
8715;DHT22;4394;51.208;8.904;2022-08-25T05:01:19;19.30;99.90
8715;DHT22;4394;51.208;8.904;2022-08-25T05:04:09;19.30;99.90
8715;DHT22;4394;51.208;8.904;2022-08-25T05:07:13;19.30;99.90
8715;DHT22;4394;51.208;8.904;2022-08-25T05:10:01;19.20;99.90
8715;DHT22;4394;51.208;8.904;2022-08-25T05:12:49;19.10;99.90
8715;DHT22;4394;51.208;8.904;2022-08-25T05:15:37;19.50;99.90
8715;DHT22;4394;51.208;8.904;2022-08-25T05:18:39;19.40;99.90
8715;DHT22;4394;51.208;8.904;2022-08-25T05:21:27;19.40;99.90
8715;DHT22;4394;51.208;8.904;2022-08-25T05:24:15;19.40;99.90
8715;DHT22;4394;51.208;8.904;2022-08-25T05:27:04;19.40;99.90
8715;DHT22;4394;51.208;8.904;2022-08-25T05:29:52;19.40;99.90
8715;DHT22;4394;51.208;8.904;2022-08-25T05:32:40;19.40;99.90
8715;DHT22;4394;51.208;8.904;2022-08-25T05:35:29;19.40;99.90
8715;DHT22;4394;51.208;8.904;2022-08-25T05:38:17;19.40;99.90
8715;DHT22;4394;51.208;8.904;2022-08-25T05:41:08;19.40;99.90
8715;DHT22;4394;51.208;8.904;2022-08-25T05:43:56;19.50;99.90
8715;DHT22;4394;51.208;8.904;2022-08-25T05:46:44;19.50;99.90
8715;DHT22;4394;51.208;8.904;2022-08-25T05:49:33;19.50;99.90
8715;DHT22;4394;51.208;8.904;2022-08-25T05:52:22;19.60;99.90
8715;DHT22;4394;51.208;8.904;2022-08-25T05:55:10;20.10;99.90
8715;DHT22;4394;51.208;8.904;2022-08-25T05:57:58;19.90;99.90
8715;DHT22;4394;51.208;8.904;2022-08-25T06:00:47;19.90;99.90
8715;DHT22;4394;51.208;8.904;2022-08-25T06:03:35;19.90;99.90
8715;DHT22;4394;51.208;8.904;2022-08-25T06:06:23;20.30;99.90
8715;DHT22;4394;51.208;8.904;2022-08-25T06:09:13;20.30;99.90
8715;DHT22;4394;51.208;8.904;2022-08-25T06:12:01;20.30;99.90
8715;DHT22;4394;51.208;8.904;2022-08-25T06:14:50;20.30;99.90
8715;DHT22;4394;51.208;8.904;2022-08-25T06:17:38;20.30;99.90
8715;DHT22;4394;51.208;8.904;2022-08-25T06:20:29;20.40;99.90
8715;DHT22;4394;51.208;8.904;2022-08-25T06:23:17;20.50;99.90
8715;DHT22;4394;51.208;8.904;2022-08-25T06:26:09;20.50;99.90
8715;DHT22;4394;51.208;8.904;2022-08-25T06:29:07;20.60;99.90
8715;DHT22;4394;51.208;8.904;2022-08-25T06:31:55;20.70;99.90
8715;DHT22;4394;51.208;8.904;2022-08-25T06:34:43;20.70;99.90
8715;DHT22;4394;51.208;8.904;2022-08-25T06:37:31;20.80;99.90
8715;DHT22;4394;51.208;8.904;2022-08-25T06:40:19;20.80;99.90
8715;DHT22;4394;51.208;8.904;2022-08-25T06:43:10;21.00;99.90
8715;DHT22;4394;51.208;8.904;2022-08-25T06:45:58;21.50;99.90
8715;DHT22;4394;51.208;8.904;2022-08-25T06:48:46;21.40;99.90
8715;DHT22;4394;51.208;8.904;2022-08-25T06:51:34;21.30;99.90
8715;DHT22;4394;51.208;8.904;2022-08-25T06:54:22;21.30;99.90
8715;DHT22;4394;51.208;8.904;2022-08-25T06:57:10;21.30;99.90
8715;DHT22;4394;51.208;8.904;2022-08-25T07:00:00;21.40;99.90
8715;DHT22;4394;51.208;8.904;2022-08-25T07:02:49;21.40;99.90
8715;DHT22;4394;51.208;8.904;2022-08-25T07:05:39;21.50;99.90
8715;DHT22;4394;51.208;8.904;2022-08-25T07:08:29;21.50;99.90
8715;DHT22;4394;51.208;8.904;2022-08-25T07:11:17;21.60;99.90
8715;DHT22;4394;51.208;8.904;2022-08-25T07:14:07;21.70;99.90
8715;DHT22;4394;51.208;8.904;2022-08-25T07:16:57;21.80;99.90
8715;DHT22;4394;51.208;8.904;2022-08-25T07:19:45;21.80;99.90
8715;DHT22;4394;51.208;8.904;2022-08-25T07:22:34;21.90;99.90
8715;DHT22;4394;51.208;8.904;2022-08-25T07:25:22;22.00;99.90
8715;DHT22;4394;51.208;8.904;2022-08-25T07:28:09;22.10;99.90
8715;DHT22;4394;51.208;8.904;2022-08-25T07:30:57;22.20;99.90
8715;DHT22;4394;51.208;8.904;2022-08-25T07:33:48;22.20;99.90
8715;DHT22;4394;51.208;8.904;2022-08-25T07:36:55;22.30;99.90
8715;DHT22;4394;51.208;8.904;2022-08-25T07:39:43;22.40;99.90
8715;DHT22;4394;51.208;8.904;2022-08-25T07:42:31;22.40;99.90
8715;DHT22;4394;51.208;8.904;2022-08-25T07:45:19;22.50;99.90
8715;DHT22;4394;51.208;8.904;2022-08-25T07:48:11;22.60;99.90
8715;DHT22;4394;51.208;8.904;2022-08-25T07:51:05;22.70;99.90
8715;DHT22;4394;51.208;8.904;2022-08-25T07:53:54;22.80;99.90
8715;DHT22;4394;51.208;8.904;2022-08-25T07:56:43;22.80;99.90
8715;DHT22;4394;51.208;8.904;2022-08-25T07:59:30;22.90;99.90
8715;DHT22;4394;51.208;8.904;2022-08-25T08:02:25;23.00;99.90
8715;DHT22;4394;51.208;8.904;2022-08-25T08:05:13;23.10;99.90
8715;DHT22;4394;51.208;8.904;2022-08-25T08:08:03;23.30;99.90
8715;DHT22;4394;51.208;8.904;2022-08-25T08:10:52;23.30;99.90
8715;DHT22;4394;51.208;8.904;2022-08-25T08:13:51;23.40;99.90
8715;DHT22;4394;51.208;8.904;2022-08-25T08:16:39;23.50;99.90
8715;DHT22;4394;51.208;8.904;2022-08-25T08:19:29;23.60;99.90
8715;DHT22;4394;51.208;8.904;2022-08-25T08:22:17;23.70;99.90
8715;DHT22;4394;51.208;8.904;2022-08-25T08:25:07;23.80;99.90
8715;DHT22;4394;51.208;8.904;2022-08-25T08:27:56;23.90;99.90
8715;DHT22;4394;51.208;8.904;2022-08-25T08:30:44;24.00;99.90
8715;DHT22;4394;51.208;8.904;2022-08-25T08:33:39;24.10;99.90
8715;DHT22;4394;51.208;8.904;2022-08-25T08:36:27;24.20;99.90
8715;DHT22;4394;51.208;8.904;2022-08-25T08:39:15;24.30;99.90
8715;DHT22;4394;51.208;8.904;2022-08-25T08:42:13;24.20;99.90
8715;DHT22;4394;51.208;8.904;2022-08-25T08:45:10;24.40;99.90
8715;DHT22;4394;51.208;8.904;2022-08-25T08:48:09;24.50;99.90
8715;DHT22;4394;51.208;8.904;2022-08-25T08:51:04;24.60;99.90
8715;DHT22;4394;51.208;8.904;2022-08-25T08:53:56;24.70;99.90
8715;DHT22;4394;51.208;8.904;2022-08-25T08:56:47;24.80;99.90
8715;DHT22;4394;51.208;8.904;2022-08-25T08:59:42;24.90;99.90
8715;DHT22;4394;51.208;8.904;2022-08-25T09:02:36;25.00;99.90
8715;DHT22;4394;51.208;8.904;2022-08-25T09:05:42;25.00;99.90
8715;DHT22;4394;51.208;8.904;2022-08-25T09:08:32;25.10;99.90
8715;DHT22;4394;51.208;8.904;2022-08-25T09:11:22;25.20;99.90
8715;DHT22;4394;51.208;8.904;2022-08-25T09:14:20;25.30;99.90
8715;DHT22;4394;51.208;8.904;2022-08-25T09:17:18;25.40;99.90
8715;DHT22;4394;51.208;8.904;2022-08-25T09:20:25;25.40;99.90
8715;DHT22;4394;51.208;8.904;2022-08-25T09:23:19;25.50;99.90
8715;DHT22;4394;51.208;8.904;2022-08-25T09:26:18;25.60;99.90
8715;DHT22;4394;51.208;8.904;2022-08-25T09:29:09;25.70;99.90
8715;DHT22;4394;51.208;8.904;2022-08-25T09:32:02;25.80;99.90
8715;DHT22;4394;51.208;8.904;2022-08-25T09:34:54;25.90;99.90
8715;DHT22;4394;51.208;8.904;2022-08-25T09:37:53;26.00;99.90
8715;DHT22;4394;51.208;8.904;2022-08-25T09:40:45;26.00;99.90
8715;DHT22;4394;51.208;8.904;2022-08-25T09:43:34;26.10;99.90
8715;DHT22;4394;51.208;8.904;2022-08-25T09:46:23;26.20;99.90
8715;DHT22;4394;51.208;8.904;2022-08-25T09:49:12;26.20;99.90
8715;DHT22;4394;51.208;8.904;2022-08-25T09:52:21;26.20;99.90
8715;DHT22;4394;51.208;8.904;2022-08-25T09:55:22;26.20;99.90
8715;DHT22;4394;51.208;8.904;2022-08-25T09:58:13;26.20;99.90
8715;DHT22;4394;51.208;8.904;2022-08-25T10:01:11;26.30;99.90
8715;DHT22;4394;51.208;8.904;2022-08-25T10:04:00;26.40;99.90
8715;DHT22;4394;51.208;8.904;2022-08-25T10:06:51;26.50;99.90
8715;DHT22;4394;51.208;8.904;2022-08-25T10:09:41;26.50;99.90
8715;DHT22;4394;51.208;8.904;2022-08-25T10:12:32;26.60;99.90
8715;DHT22;4394;51.208;8.904;2022-08-25T10:15:30;26.70;99.90
8715;DHT22;4394;51.208;8.904;2022-08-25T10:18:20;26.80;99.90
8715;DHT22;4394;51.208;8.904;2022-08-25T10:21:12;26.90;99.90
8715;DHT22;4394;51.208;8.904;2022-08-25T10:24:04;27.00;99.90
8715;DHT22;4394;51.208;8.904;2022-08-25T10:26:56;27.10;99.90
8715;DHT22;4394;51.208;8.904;2022-08-25T10:29:54;27.20;99.90
8715;DHT22;4394;51.208;8.904;2022-08-25T10:32:47;27.20;99.70
8715;DHT22;4394;51.208;8.904;2022-08-25T10:35:43;27.30;99.50
8715;DHT22;4394;51.208;8.904;2022-08-25T10:38:37;27.30;99.10
8715;DHT22;4394;51.208;8.904;2022-08-25T10:41:32;27.50;99.00
8715;DHT22;4394;51.208;8.904;2022-08-25T10:44:26;27.50;98.40
8715;DHT22;4394;51.208;8.904;2022-08-25T10:47:43;27.60;98.40
8715;DHT22;4394;51.208;8.904;2022-08-25T10:50:36;27.70;98.00
8715;DHT22;4394;51.208;8.904;2022-08-25T10:53:33;27.70;98.30
8715;DHT22;4394;51.208;8.904;2022-08-25T10:56:26;27.80;97.40
8715;DHT22;4394;51.208;8.904;2022-08-25T10:59:20;27.90;96.70
8715;DHT22;4394;51.208;8.904;2022-08-25T11:05:23;28.00;97.20
8715;DHT22;4394;51.208;8.904;2022-08-25T11:08:13;28.20;97.60
8715;DHT22;4394;51.208;8.904;2022-08-25T11:11:03;28.30;97.50
8715;DHT22;4394;51.208;8.904;2022-08-25T11:13:54;28.50;97.20
8715;DHT22;4394;51.208;8.904;2022-08-25T11:16:44;28.60;96.70
8715;DHT22;4394;51.208;8.904;2022-08-25T11:19:34;28.70;97.40
8715;DHT22;4394;51.208;8.904;2022-08-25T11:22:25;28.80;96.80
8715;DHT22;4394;51.208;8.904;2022-08-25T11:25:17;28.90;97.10
8715;DHT22;4394;51.208;8.904;2022-08-25T11:28:09;28.90;96.70
8715;DHT22;4394;51.208;8.904;2022-08-25T11:30:58;29.10;96.70
8715;DHT22;4394;51.208;8.904;2022-08-25T11:33:48;29.30;95.20
8715;DHT22;4394;51.208;8.904;2022-08-25T11:36:36;29.40;94.80
8715;DHT22;4394;51.208;8.904;2022-08-25T11:39:38;29.50;96.10
8715;DHT22;4394;51.208;8.904;2022-08-25T11:42:30;29.50;94.60
8715;DHT22;4394;51.208;8.904;2022-08-25T11:45:29;29.60;95.40
8715;DHT22;4394;51.208;8.904;2022-08-25T11:48:24;29.40;94.80
8715;DHT22;4394;51.208;8.904;2022-08-25T11:51:26;29.30;95.20
8715;DHT22;4394;51.208;8.904;2022-08-25T11:54:20;29.40;95.70
8715;DHT22;4394;51.208;8.904;2022-08-25T11:57:18;29.40;95.90
8715;DHT22;4394;51.208;8.904;2022-08-25T12:00:09;29.40;95.20
8715;DHT22;4394;51.208;8.904;2022-08-25T12:02:58;29.40;93.30
8715;DHT22;4394;51.208;8.904;2022-08-25T12:05:48;29.20;94.50
8715;DHT22;4394;51.208;8.904;2022-08-25T12:08:48;29.10;93.80
8715;DHT22;4394;51.208;8.904;2022-08-25T12:11:47;29.10;93.90
8715;DHT22;4394;51.208;8.904;2022-08-25T12:14:40;29.10;94.30
8715;DHT22;4394;51.208;8.904;2022-08-25T12:17:35;29.20;94.40
8715;DHT22;4394;51.208;8.904;2022-08-25T12:23:28;29.30;93.70
8715;DHT22;4394;51.208;8.904;2022-08-25T12:26:20;29.40;93.90
8715;DHT22;4394;51.208;8.904;2022-08-25T12:29:10;29.40;93.00
8715;DHT22;4394;51.208;8.904;2022-08-25T12:32:21;29.40;93.20
8715;DHT22;4394;51.208;8.904;2022-08-25T12:35:20;29.50;93.20
8715;DHT22;4394;51.208;8.904;2022-08-25T12:38:10;29.70;93.20
8715;DHT22;4394;51.208;8.904;2022-08-25T12:41:02;29.80;92.10
8715;DHT22;4394;51.208;8.904;2022-08-25T12:43:51;30.00;91.60
8715;DHT22;4394;51.208;8.904;2022-08-25T12:46:40;30.20;91.30
8715;DHT22;4394;51.208;8.904;2022-08-25T12:49:32;30.40;90.50
8715;DHT22;4394;51.208;8.904;2022-08-25T12:52:22;30.50;91.70
8715;DHT22;4394;51.208;8.904;2022-08-25T12:55:13;30.40;91.10
8715;DHT22;4394;51.208;8.904;2022-08-25T12:58:02;30.40;91.50
8715;DHT22;4394;51.208;8.904;2022-08-25T13:00:56;30.40;91.00
8715;DHT22;4394;51.208;8.904;2022-08-25T13:04:04;30.40;90.30
8715;DHT22;4394;51.208;8.904;2022-08-25T13:07:03;30.50;90.90
8715;DHT22;4394;51.208;8.904;2022-08-25T13:10:06;30.70;91.50
8715;DHT22;4394;51.208;8.904;2022-08-25T13:12:59;30.80;91.90
8715;DHT22;4394;51.208;8.904;2022-08-25T13:15:57;30.80;89.10
8715;DHT22;4394;51.208;8.904;2022-08-25T13:18:45;30.90;86.40
8715;DHT22;4394;51.208;8.904;2022-08-25T13:21:38;31.00;91.20
8715;DHT22;4394;51.208;8.904;2022-08-25T13:24:28;31.10;90.10
8715;DHT22;4394;51.208;8.904;2022-08-25T13:27:26;31.10;90.50
8715;DHT22;4394;51.208;8.904;2022-08-25T13:30:18;31.00;89.40
8715;DHT22;4394;51.208;8.904;2022-08-25T13:33:15;30.90;86.70
8715;DHT22;4394;51.208;8.904;2022-08-25T13:36:05;30.80;88.00
8715;DHT22;4394;51.208;8.904;2022-08-25T13:39:12;30.70;87.40
8715;DHT22;4394;51.208;8.904;2022-08-25T13:42:03;30.60;88.90
8715;DHT22;4394;51.208;8.904;2022-08-25T13:44:52;30.50;87.60
8715;DHT22;4394;51.208;8.904;2022-08-25T13:47:41;30.40;85.50
8715;DHT22;4394;51.208;8.904;2022-08-25T13:50:32;30.30;84.90
8715;DHT22;4394;51.208;8.904;2022-08-25T13:53:20;30.30;84.60
8715;DHT22;4394;51.208;8.904;2022-08-25T13:56:09;30.40;86.50
8715;DHT22;4394;51.208;8.904;2022-08-25T13:59:02;30.40;83.50
8715;DHT22;4394;51.208;8.904;2022-08-25T14:01:55;30.40;83.50
8715;DHT22;4394;51.208;8.904;2022-08-25T14:04:46;30.50;84.60
8715;DHT22;4394;51.208;8.904;2022-08-25T14:07:38;30.80;84.60
8715;DHT22;4394;51.208;8.904;2022-08-25T14:10:38;31.00;84.80
8715;DHT22;4394;51.208;8.904;2022-08-25T14:13:28;31.10;84.70
8715;DHT22;4394;51.208;8.904;2022-08-25T14:16:20;31.00;81.40
8715;DHT22;4394;51.208;8.904;2022-08-25T14:19:11;30.90;82.40
8715;DHT22;4394;51.208;8.904;2022-08-25T14:22:05;30.80;81.40
8715;DHT22;4394;51.208;8.904;2022-08-25T14:24:53;30.70;82.00
8715;DHT22;4394;51.208;8.904;2022-08-25T14:27:42;30.60;81.90
8715;DHT22;4394;51.208;8.904;2022-08-25T14:30:51;30.50;81.30
8715;DHT22;4394;51.208;8.904;2022-08-25T14:33:42;30.50;82.10
8715;DHT22;4394;51.208;8.904;2022-08-25T14:36:35;30.50;81.00
8715;DHT22;4394;51.208;8.904;2022-08-25T14:39:24;30.40;81.60
8715;DHT22;4394;51.208;8.904;2022-08-25T14:42:13;30.30;82.00
8715;DHT22;4394;51.208;8.904;2022-08-25T14:45:03;30.30;81.60
8715;DHT22;4394;51.208;8.904;2022-08-25T14:47:52;30.20;81.40
8715;DHT22;4394;51.208;8.904;2022-08-25T14:50:48;30.20;82.00
8715;DHT22;4394;51.208;8.904;2022-08-25T14:53:37;30.10;81.60
8715;DHT22;4394;51.208;8.904;2022-08-25T14:56:25;30.10;80.70
8715;DHT22;4394;51.208;8.904;2022-08-25T14:59:15;30.10;82.20
8715;DHT22;4394;51.208;8.904;2022-08-25T15:02:04;30.20;81.90
8715;DHT22;4394;51.208;8.904;2022-08-25T15:04:55;30.20;82.30
8715;DHT22;4394;51.208;8.904;2022-08-25T15:07:45;30.30;81.90
8715;DHT22;4394;51.208;8.904;2022-08-25T15:10:52;30.50;82.40
8715;DHT22;4394;51.208;8.904;2022-08-25T15:13:39;30.80;80.60
8715;DHT22;4394;51.208;8.904;2022-08-25T15:16:36;31.00;81.80
8715;DHT22;4394;51.208;8.904;2022-08-25T15:19:25;31.20;81.40
8715;DHT22;4394;51.208;8.904;2022-08-25T15:22:13;31.40;80.60
8715;DHT22;4394;51.208;8.904;2022-08-25T15:25:03;31.40;81.00
8715;DHT22;4394;51.208;8.904;2022-08-25T15:27:53;31.50;80.30
8715;DHT22;4394;51.208;8.904;2022-08-25T15:30:41;31.60;80.60
8715;DHT22;4394;51.208;8.904;2022-08-25T15:33:31;31.70;80.10
8715;DHT22;4394;51.208;8.904;2022-08-25T15:36:20;31.60;79.50
8715;DHT22;4394;51.208;8.904;2022-08-25T15:39:10;31.50;79.60
8715;DHT22;4394;51.208;8.904;2022-08-25T15:41:59;31.70;80.60
8715;DHT22;4394;51.208;8.904;2022-08-25T15:44:49;31.70;77.70
8715;DHT22;4394;51.208;8.904;2022-08-25T15:47:39;31.70;77.40
8715;DHT22;4394;51.208;8.904;2022-08-25T15:50:27;31.80;77.90
8715;DHT22;4394;51.208;8.904;2022-08-25T15:53:15;31.80;78.00
8715;DHT22;4394;51.208;8.904;2022-08-25T15:56:04;31.80;77.20
8715;DHT22;4394;51.208;8.904;2022-08-25T15:58:54;31.90;78.20
8715;DHT22;4394;51.208;8.904;2022-08-25T16:01:42;31.90;74.60
8715;DHT22;4394;51.208;8.904;2022-08-25T16:04:31;31.90;75.70
8715;DHT22;4394;51.208;8.904;2022-08-25T16:07:19;32.00;76.80
8715;DHT22;4394;51.208;8.904;2022-08-25T16:10:08;32.10;74.90
8715;DHT22;4394;51.208;8.904;2022-08-25T16:12:57;32.10;74.70
8715;DHT22;4394;51.208;8.904;2022-08-25T16:15:46;32.10;72.80
8715;DHT22;4394;51.208;8.904;2022-08-25T16:18:40;32.10;73.40
8715;DHT22;4394;51.208;8.904;2022-08-25T16:21:29;32.10;72.10
8715;DHT22;4394;51.208;8.904;2022-08-25T16:24:21;32.00;71.20
8715;DHT22;4394;51.208;8.904;2022-08-25T16:27:09;32.10;71.40
8715;DHT22;4394;51.208;8.904;2022-08-25T16:29:57;32.00;71.40
8715;DHT22;4394;51.208;8.904;2022-08-25T16:32:47;32.00;70.60
8715;DHT22;4394;51.208;8.904;2022-08-25T16:35:35;32.00;70.30
8715;DHT22;4394;51.208;8.904;2022-08-25T16:38:26;31.90;68.80
8715;DHT22;4394;51.208;8.904;2022-08-25T16:41:15;31.90;70.20
8715;DHT22;4394;51.208;8.904;2022-08-25T16:44:04;31.90;71.30
8715;DHT22;4394;51.208;8.904;2022-08-25T16:46:56;31.90;69.30
8715;DHT22;4394;51.208;8.904;2022-08-25T16:49:46;31.90;69.70
8715;DHT22;4394;51.208;8.904;2022-08-25T16:52:34;31.80;68.50
8715;DHT22;4394;51.208;8.904;2022-08-25T16:55:42;31.80;68.00
8715;DHT22;4394;51.208;8.904;2022-08-25T16:58:31;31.80;69.00
8715;DHT22;4394;51.208;8.904;2022-08-25T17:01:19;31.80;68.60
8715;DHT22;4394;51.208;8.904;2022-08-25T17:04:08;31.80;69.80
8715;DHT22;4394;51.208;8.904;2022-08-25T17:07:00;31.80;69.20
8715;DHT22;4394;51.208;8.904;2022-08-25T17:09:48;31.70;69.60
8715;DHT22;4394;51.208;8.904;2022-08-25T17:12:36;31.70;69.00
8715;DHT22;4394;51.208;8.904;2022-08-25T17:15:26;31.70;69.80
8715;DHT22;4394;51.208;8.904;2022-08-25T17:18:14;31.70;69.80
8715;DHT22;4394;51.208;8.904;2022-08-25T17:21:04;31.60;68.70
8715;DHT22;4394;51.208;8.904;2022-08-25T17:23:54;31.50;69.00
8715;DHT22;4394;51.208;8.904;2022-08-25T17:26:44;31.40;68.80
8715;DHT22;4394;51.208;8.904;2022-08-25T17:29:35;31.40;69.10
8715;DHT22;4394;51.208;8.904;2022-08-25T17:32:24;31.30;69.90
8715;DHT22;4394;51.208;8.904;2022-08-25T17:35:16;31.30;67.80
8715;DHT22;4394;51.208;8.904;2022-08-25T17:38:04;31.20;70.10
8715;DHT22;4394;51.208;8.904;2022-08-25T17:40:56;31.00;70.30
8715;DHT22;4394;51.208;8.904;2022-08-25T17:43:44;31.00;71.30
8715;DHT22;4394;51.208;8.904;2022-08-25T17:46:32;30.90;72.00
8715;DHT22;4394;51.208;8.904;2022-08-25T17:49:20;30.80;71.10
8715;DHT22;4394;51.208;8.904;2022-08-25T17:52:09;30.70;70.50
8715;DHT22;4394;51.208;8.904;2022-08-25T17:54:58;30.50;70.20
8715;DHT22;4394;51.208;8.904;2022-08-25T17:57:48;30.40;70.10
8715;DHT22;4394;51.208;8.904;2022-08-25T18:00:37;30.30;70.40
8715;DHT22;4394;51.208;8.904;2022-08-25T18:03:29;30.10;72.30
8715;DHT22;4394;51.208;8.904;2022-08-25T18:06:18;29.80;73.00
8715;DHT22;4394;51.208;8.904;2022-08-25T18:09:06;29.70;74.10
8715;DHT22;4394;51.208;8.904;2022-08-25T18:11:55;29.40;75.00
8715;DHT22;4394;51.208;8.904;2022-08-25T18:14:44;29.30;75.50
8715;DHT22;4394;51.208;8.904;2022-08-25T18:17:33;29.10;76.00
8715;DHT22;4394;51.208;8.904;2022-08-25T18:20:21;28.90;76.20
8715;DHT22;4394;51.208;8.904;2022-08-25T18:23:09;28.80;77.10
8715;DHT22;4394;51.208;8.904;2022-08-25T18:25:58;28.60;77.90
8715;DHT22;4394;51.208;8.904;2022-08-25T18:28:46;28.40;78.40
8715;DHT22;4394;51.208;8.904;2022-08-25T18:31:36;28.30;80.30
8715;DHT22;4394;51.208;8.904;2022-08-25T18:34:24;28.10;80.20
8715;DHT22;4394;51.208;8.904;2022-08-25T18:37:15;28.00;81.30
8715;DHT22;4394;51.208;8.904;2022-08-25T18:40:21;27.80;82.00
8715;DHT22;4394;51.208;8.904;2022-08-25T18:43:10;27.70;82.70